< < Back
Terminal Aerodrome Forecast


Current Version              Previous Versions:   1  2  3  4  5  6  7  8  9  

Terminal Aerodrome Forecast

157
FTUS42 KGSP 032100 AAA
TAFGSP
TAF AMD
KGSP 032100Z 0321/0418 23012G20KT P6SM SCT050
     FM040100 28007KT P6SM SCT060
     FM040500 35005KT P6SM SCT250
     FM041600 29007KT P6SM SCT250=

Latest METAR

019
SAUS70 KWBC 041300 RRF
MTRGSP
METAR KGSP 041253Z 35006KT 10SM CLR 17/08 A2976 RMK AO2 SLP068
T01670078


USA.gov is the U.S. government's official web portal to all federal, state and local government web resources and services.